sensor_id;sensor_type;location;lat;lon;timestamp;P1;durP1;ratioP1;P2;durP2;ratioP2
66603;SDS011;53460;39.612;8.822;2022-11-09T00:01:16;5.82;;;1.40;;
66603;SDS011;53460;39.612;8.822;2022-11-09T00:03:42;5.00;;;1.23;;
66603;SDS011;53460;39.612;8.822;2022-11-09T00:06:07;3.20;;;1.13;;
66603;SDS011;53460;39.612;8.822;2022-11-09T00:08:35;3.40;;;1.42;;
66603;SDS011;53460;39.612;8.822;2022-11-09T00:11:01;4.97;;;1.05;;
66603;SDS011;53460;39.612;8.822;2022-11-09T00:13:27;3.33;;;1.20;;
66603;SDS011;53460;39.612;8.822;2022-11-09T00:15:52;3.45;;;1.30;;
66603;SDS011;53460;39.612;8.822;2022-11-09T00:18:22;4.88;;;1.15;;
66603;SDS011;53460;39.612;8.822;2022-11-09T00:20:47;5.20;;;0.88;;
66603;SDS011;53460;39.612;8.822;2022-11-09T00:23:13;3.17;;;1.25;;
66603;SDS011;53460;39.612;8.822;2022-11-09T00:25:38;3.80;;;1.10;;
66603;SDS011;53460;39.612;8.822;2022-11-09T00:28:04;3.90;;;1.20;;
66603;SDS011;53460;39.612;8.822;2022-11-09T00:30:29;3.65;;;1.20;;
66603;SDS011;53460;39.612;8.822;2022-11-09T00:32:55;4.47;;;1.33;;
66603;SDS011;53460;39.612;8.822;2022-11-09T00:35:21;6.50;;;1.50;;
66603;SDS011;53460;39.612;8.822;2022-11-09T00:37:46;2.45;;;1.10;;
66603;SDS011;53460;39.612;8.822;2022-11-09T00:40:12;3.38;;;1.17;;
66603;SDS011;53460;39.612;8.822;2022-11-09T00:42:37;2.85;;;1.15;;
66603;SDS011;53460;39.612;8.822;2022-11-09T00:45:03;2.85;;;1.13;;
66603;SDS011;53460;39.612;8.822;2022-11-09T00:47:28;4.93;;;1.63;;
66603;SDS011;53460;39.612;8.822;2022-11-09T00:49:54;4.35;;;1.23;;
66603;SDS011;53460;39.612;8.822;2022-11-09T00:52:20;3.80;;;1.60;;
66603;SDS011;53460;39.612;8.822;2022-11-09T00:54:45;4.40;;;1.60;;
66603;SDS011;53460;39.612;8.822;2022-11-09T00:57:11;3.75;;;1.27;;
66603;SDS011;53460;39.612;8.822;2022-11-09T00:59:36;5.07;;;1.30;;
66603;SDS011;53460;39.612;8.822;2022-11-09T01:02:02;5.07;;;1.55;;
66603;SDS011;53460;39.612;8.822;2022-11-09T01:04:28;4.97;;;1.67;;
66603;SDS011;53460;39.612;8.822;2022-11-09T01:06:53;3.28;;;1.13;;
66603;SDS011;53460;39.612;8.822;2022-11-09T01:09:18;4.00;;;1.20;;
66603;SDS011;53460;39.612;8.822;2022-11-09T01:11:44;5.68;;;1.40;;
66603;SDS011;53460;39.612;8.822;2022-11-09T01:14:09;3.80;;;1.05;;
66603;SDS011;53460;39.612;8.822;2022-11-09T01:16:35;5.18;;;1.27;;
66603;SDS011;53460;39.612;8.822;2022-11-09T01:19:02;3.10;;;1.38;;
66603;SDS011;53460;39.612;8.822;2022-11-09T01:21:28;5.90;;;1.20;;
66603;SDS011;53460;39.612;8.822;2022-11-09T01:23:54;3.15;;;1.45;;
66603;SDS011;53460;39.612;8.822;2022-11-09T01:26:19;3.50;;;1.25;;
66603;SDS011;53460;39.612;8.822;2022-11-09T01:28:45;2.33;;;1.10;;
66603;SDS011;53460;39.612;8.822;2022-11-09T01:31:13;2.40;;;0.95;;
66603;SDS011;53460;39.612;8.822;2022-11-09T01:33:39;3.75;;;1.65;;
66603;SDS011;53460;39.612;8.822;2022-11-09T01:36:05;3.83;;;1.10;;
66603;SDS011;53460;39.612;8.822;2022-11-09T01:38:31;4.90;;;1.38;;
66603;SDS011;53460;39.612;8.822;2022-11-09T01:40:57;8.07;;;1.20;;
66603;SDS011;53460;39.612;8.822;2022-11-09T01:43:23;4.32;;;1.02;;
66603;SDS011;53460;39.612;8.822;2022-11-09T01:45:51;5.88;;;1.35;;
66603;SDS011;53460;39.612;8.822;2022-11-09T01:48:18;5.32;;;1.27;;
66603;SDS011;53460;39.612;8.822;2022-11-09T01:53:15;5.63;;;2.53;;
66603;SDS011;53460;39.612;8.822;2022-11-09T01:55:43;5.60;;;1.20;;
66603;SDS011;53460;39.612;8.822;2022-11-09T01:58:13;2.85;;;1.20;;
66603;SDS011;53460;39.612;8.822;2022-11-09T02:00:40;4.05;;;1.10;;
66603;SDS011;53460;39.612;8.822;2022-11-09T02:03:09;3.83;;;1.23;;
66603;SDS011;53460;39.612;8.822;2022-11-09T02:05:37;3.42;;;1.50;;
66603;SDS011;53460;39.612;8.822;2022-11-09T02:08:04;6.10;;;1.30;;
66603;SDS011;53460;39.612;8.822;2022-11-09T02:13:08;4.55;;;1.55;;
66603;SDS011;53460;39.612;8.822;2022-11-09T02:15:36;3.72;;;1.05;;
66603;SDS011;53460;39.612;8.822;2022-11-09T02:18:01;4.30;;;1.17;;
66603;SDS011;53460;39.612;8.822;2022-11-09T02:20:28;2.00;;;1.10;;
66603;SDS011;53460;39.612;8.822;2022-11-09T02:22:54;3.67;;;1.20;;
66603;SDS011;53460;39.612;8.822;2022-11-09T02:25:20;4.80;;;1.20;;
66603;SDS011;53460;39.612;8.822;2022-11-09T02:27:47;3.22;;;1.20;;
66603;SDS011;53460;39.612;8.822;2022-11-09T02:30:13;4.45;;;1.30;;
66603;SDS011;53460;39.612;8.822;2022-11-09T02:32:39;2.42;;;1.10;;
66603;SDS011;53460;39.612;8.822;2022-11-09T02:35:05;4.05;;;1.20;;
66603;SDS011;53460;39.612;8.822;2022-11-09T02:37:34;3.78;;;1.13;;
66603;SDS011;53460;39.612;8.822;2022-11-09T02:40:03;3.20;;;1.20;;
66603;SDS011;53460;39.612;8.822;2022-11-09T02:42:31;2.97;;;1.33;;
66603;SDS011;53460;39.612;8.822;2022-11-09T02:44:58;2.38;;;1.17;;
66603;SDS011;53460;39.612;8.822;2022-11-09T02:47:24;6.32;;;2.00;;
66603;SDS011;53460;39.612;8.822;2022-11-09T02:49:49;6.38;;;3.55;;
66603;SDS011;53460;39.612;8.822;2022-11-09T02:52:15;5.05;;;1.10;;
66603;SDS011;53460;39.612;8.822;2022-11-09T02:54:42;2.58;;;0.95;;
66603;SDS011;53460;39.612;8.822;2022-11-09T02:57:08;7.85;;;1.77;;
66603;SDS011;53460;39.612;8.822;2022-11-09T02:59:33;5.95;;;1.45;;
66603;SDS011;53460;39.612;8.822;2022-11-09T03:02:00;3.50;;;1.30;;
66603;SDS011;53460;39.612;8.822;2022-11-09T03:04:29;5.32;;;1.30;;
66603;SDS011;53460;39.612;8.822;2022-11-09T03:06:54;1.95;;;0.82;;
66603;SDS011;53460;39.612;8.822;2022-11-09T03:09:20;2.83;;;1.00;;
66603;SDS011;53460;39.612;8.822;2022-11-09T03:11:45;4.60;;;1.45;;
66603;SDS011;53460;39.612;8.822;2022-11-09T03:14:13;2.47;;;1.15;;
66603;SDS011;53460;39.612;8.822;2022-11-09T03:16:45;3.05;;;1.05;;
66603;SDS011;53460;39.612;8.822;2022-11-09T03:19:13;4.32;;;1.17;;
66603;SDS011;53460;39.612;8.822;2022-11-09T03:21:38;2.33;;;0.98;;
66603;SDS011;53460;39.612;8.822;2022-11-09T03:24:04;4.70;;;1.38;;
66603;SDS011;53460;39.612;8.822;2022-11-09T03:26:30;6.07;;;1.50;;
66603;SDS011;53460;39.612;8.822;2022-11-09T03:28:56;5.20;;;1.20;;
66603;SDS011;53460;39.612;8.822;2022-11-09T03:31:22;5.03;;;1.38;;
66603;SDS011;53460;39.612;8.822;2022-11-09T03:33:50;2.97;;;1.40;;
66603;SDS011;53460;39.612;8.822;2022-11-09T03:36:16;1.98;;;0.88;;
66603;SDS011;53460;39.612;8.822;2022-11-09T03:38:41;4.25;;;1.52;;
66603;SDS011;53460;39.612;8.822;2022-11-09T03:41:07;2.70;;;1.33;;
66603;SDS011;53460;39.612;8.822;2022-11-09T03:43:34;5.88;;;1.15;;
66603;SDS011;53460;39.612;8.822;2022-11-09T03:45:59;2.05;;;0.98;;
66603;SDS011;53460;39.612;8.822;2022-11-09T03:48:25;2.88;;;0.93;;
66603;SDS011;53460;39.612;8.822;2022-11-09T03:50:50;2.25;;;1.08;;
66603;SDS011;53460;39.612;8.822;2022-11-09T03:53:16;1.33;;;0.88;;
66603;SDS011;53460;39.612;8.822;2022-11-09T03:55:41;3.50;;;1.60;;
66603;SDS011;53460;39.612;8.822;2022-11-09T03:58:08;3.22;;;1.48;;
66603;SDS011;53460;39.612;8.822;2022-11-09T04:00:34;2.45;;;1.08;;
66603;SDS011;53460;39.612;8.822;2022-11-09T04:03:00;3.20;;;1.48;;
66603;SDS011;53460;39.612;8.822;2022-11-09T04:05:25;3.58;;;1.25;;
66603;SDS011;53460;39.612;8.822;2022-11-09T04:07:55;5.43;;;1.48;;
66603;SDS011;53460;39.612;8.822;2022-11-09T04:10:21;2.67;;;1.35;;
66603;SDS011;53460;39.612;8.822;2022-11-09T04:12:47;8.00;;;2.38;;
66603;SDS011;53460;39.612;8.822;2022-11-09T04:15:12;5.60;;;1.20;;
66603;SDS011;53460;39.612;8.822;2022-11-09T04:17:38;6.60;;;1.38;;
66603;SDS011;53460;39.612;8.822;2022-11-09T04:20:04;7.20;;;1.52;;
66603;SDS011;53460;39.612;8.822;2022-11-09T04:22:30;4.45;;;1.58;;
66603;SDS011;53460;39.612;8.822;2022-11-09T04:24:56;5.28;;;1.33;;
66603;SDS011;53460;39.612;8.822;2022-11-09T04:27:21;2.58;;;1.10;;
66603;SDS011;53460;39.612;8.822;2022-11-09T04:29:46;4.45;;;1.02;;
66603;SDS011;53460;39.612;8.822;2022-11-09T04:32:12;6.43;;;1.40;;
66603;SDS011;53460;39.612;8.822;2022-11-09T04:34:37;2.50;;;1.20;;
66603;SDS011;53460;39.612;8.822;2022-11-09T04:37:05;3.10;;;1.67;;
66603;SDS011;53460;39.612;8.822;2022-11-09T04:39:31;3.25;;;1.20;;
66603;SDS011;53460;39.612;8.822;2022-11-09T04:41:56;5.18;;;1.63;;
66603;SDS011;53460;39.612;8.822;2022-11-09T04:44:22;3.00;;;1.25;;
66603;SDS011;53460;39.612;8.822;2022-11-09T04:46:47;3.70;;;1.50;;
66603;SDS011;53460;39.612;8.822;2022-11-09T04:49:12;2.55;;;1.20;;
66603;SDS011;53460;39.612;8.822;2022-11-09T04:51:38;6.93;;;1.77;;
66603;SDS011;53460;39.612;8.822;2022-11-09T04:54:03;6.45;;;1.58;;
66603;SDS011;53460;39.612;8.822;2022-11-09T04:56:29;3.28;;;1.20;;
66603;SDS011;53460;39.612;8.822;2022-11-09T04:58:54;3.65;;;1.42;;
66603;SDS011;53460;39.612;8.822;2022-11-09T05:01:20;4.10;;;1.27;;
66603;SDS011;53460;39.612;8.822;2022-11-09T05:03:45;5.65;;;1.50;;
66603;SDS011;53460;39.612;8.822;2022-11-09T05:06:11;3.60;;;1.33;;
66603;SDS011;53460;39.612;8.822;2022-11-09T05:08:55;3.13;;;1.30;;
66603;SDS011;53460;39.612;8.822;2022-11-09T05:11:21;3.28;;;1.20;;
66603;SDS011;53460;39.612;8.822;2022-11-09T05:13:47;4.53;;;1.23;;
66603;SDS011;53460;39.612;8.822;2022-11-09T05:16:13;3.55;;;1.20;;
66603;SDS011;53460;39.612;8.822;2022-11-09T05:18:41;6.97;;;1.70;;
66603;SDS011;53460;39.612;8.822;2022-11-09T05:21:07;5.50;;;1.50;;
66603;SDS011;53460;39.612;8.822;2022-11-09T05:23:32;6.05;;;1.42;;
66603;SDS011;53460;39.612;8.822;2022-11-09T05:26:16;2.80;;;1.13;;
66603;SDS011;53460;39.612;8.822;2022-11-09T05:28:42;4.07;;;1.30;;
66603;SDS011;53460;39.612;8.822;2022-11-09T05:31:07;8.23;;;1.50;;
66603;SDS011;53460;39.612;8.822;2022-11-09T05:33:32;5.20;;;1.40;;
66603;SDS011;53460;39.612;8.822;2022-11-09T05:35:58;4.13;;;1.23;;
66603;SDS011;53460;39.612;8.822;2022-11-09T05:38:24;6.22;;;1.58;;
66603;SDS011;53460;39.612;8.822;2022-11-09T05:40:49;6.53;;;1.30;;
66603;SDS011;53460;39.612;8.822;2022-11-09T05:43:15;3.88;;;1.48;;
66603;SDS011;53460;39.612;8.822;2022-11-09T05:45:41;5.28;;;1.40;;
66603;SDS011;53460;39.612;8.822;2022-11-09T05:48:06;6.47;;;1.27;;
66603;SDS011;53460;39.612;8.822;2022-11-09T05:50:32;5.47;;;1.63;;
66603;SDS011;53460;39.612;8.822;2022-11-09T05:53:24;2.88;;;1.48;;
66603;SDS011;53460;39.612;8.822;2022-11-09T05:55:50;2.15;;;1.08;;
66603;SDS011;53460;39.612;8.822;2022-11-09T05:58:15;4.63;;;1.92;;
66603;SDS011;53460;39.612;8.822;2022-11-09T06:00:41;5.78;;;1.52;;
66603;SDS011;53460;39.612;8.822;2022-11-09T06:03:07;2.88;;;1.25;;
66603;SDS011;53460;39.612;8.822;2022-11-09T06:05:33;5.97;;;1.55;;
66603;SDS011;53460;39.612;8.822;2022-11-09T06:08:06;4.45;;;1.70;;
66603;SDS011;53460;39.612;8.822;2022-11-09T06:10:32;6.50;;;1.73;;
66603;SDS011;53460;39.612;8.822;2022-11-09T06:12:57;7.53;;;1.85;;
66603;SDS011;53460;39.612;8.822;2022-11-09T06:15:23;2.58;;;1.50;;
66603;SDS011;53460;39.612;8.822;2022-11-09T06:17:51;8.52;;;2.20;;
66603;SDS011;53460;39.612;8.822;2022-11-09T06:20:17;5.50;;;2.00;;
66603;SDS011;53460;39.612;8.822;2022-11-09T06:22:42;4.57;;;1.38;;
66603;SDS011;53460;39.612;8.822;2022-11-09T06:25:08;6.57;;;1.50;;
66603;SDS011;53460;39.612;8.822;2022-11-09T06:27:33;5.82;;;1.73;;
66603;SDS011;53460;39.612;8.822;2022-11-09T06:29:59;5.40;;;1.70;;
66603;SDS011;53460;39.612;8.822;2022-11-09T06:32:24;7.60;;;3.22;;
66603;SDS011;53460;39.612;8.822;2022-11-09T06:34:50;6.75;;;1.60;;
66603;SDS011;53460;39.612;8.822;2022-11-09T06:37:15;5.47;;;1.40;;
66603;SDS011;53460;39.612;8.822;2022-11-09T06:39:42;4.95;;;1.50;;
66603;SDS011;53460;39.612;8.822;2022-11-09T06:42:08;4.85;;;1.38;;
66603;SDS011;53460;39.612;8.822;2022-11-09T06:44:34;3.97;;;1.35;;
66603;SDS011;53460;39.612;8.822;2022-11-09T06:46:59;7.10;;;1.95;;
66603;SDS011;53460;39.612;8.822;2022-11-09T06:49:24;6.82;;;1.30;;
66603;SDS011;53460;39.612;8.822;2022-11-09T06:51:50;6.18;;;1.50;;
66603;SDS011;53460;39.612;8.822;2022-11-09T06:54:15;4.25;;;1.35;;
66603;SDS011;53460;39.612;8.822;2022-11-09T06:56:41;4.20;;;1.50;;
66603;SDS011;53460;39.612;8.822;2022-11-09T06:59:06;7.05;;;1.85;;
66603;SDS011;53460;39.612;8.822;2022-11-09T07:01:33;4.60;;;1.40;;
66603;SDS011;53460;39.612;8.822;2022-11-09T07:03:59;4.85;;;1.77;;
66603;SDS011;53460;39.612;8.822;2022-11-09T07:06:24;6.35;;;2.20;;
66603;SDS011;53460;39.612;8.822;2022-11-09T07:08:53;9.50;;;2.20;;
66603;SDS011;53460;39.612;8.822;2022-11-09T07:11:18;3.85;;;1.85;;
66603;SDS011;53460;39.612;8.822;2022-11-09T07:13:46;10.80;;;2.35;;
66603;SDS011;53460;39.612;8.822;2022-11-09T07:16:12;6.32;;;2.17;;
66603;SDS011;53460;39.612;8.822;2022-11-09T07:18:41;4.45;;;2.10;;
66603;SDS011;53460;39.612;8.822;2022-11-09T07:21:08;6.53;;;2.17;;
66603;SDS011;53460;39.612;8.822;2022-11-09T07:23:34;5.70;;;1.92;;
66603;SDS011;53460;39.612;8.822;2022-11-09T07:25:59;5.93;;;1.95;;
66603;SDS011;53460;39.612;8.822;2022-11-09T07:28:25;5.70;;;2.28;;
66603;SDS011;53460;39.612;8.822;2022-11-09T07:30:50;6.85;;;2.90;;
66603;SDS011;53460;39.612;8.822;2022-11-09T07:33:17;6.68;;;2.75;;
66603;SDS011;53460;39.612;8.822;2022-11-09T07:35:43;6.40;;;2.00;;
66603;SDS011;53460;39.612;8.822;2022-11-09T07:38:08;7.90;;;1.60;;
66603;SDS011;53460;39.612;8.822;2022-11-09T07:40:34;5.65;;;1.77;;
66603;SDS011;53460;39.612;8.822;2022-11-09T07:43:00;6.68;;;2.30;;
66603;SDS011;53460;39.612;8.822;2022-11-09T07:45:26;4.93;;;1.88;;
66603;SDS011;53460;39.612;8.822;2022-11-09T07:47:59;7.68;;;2.15;;
66603;SDS011;53460;39.612;8.822;2022-11-09T07:50:26;8.50;;;1.45;;
66603;SDS011;53460;39.612;8.822;2022-11-09T07:52:51;6.07;;;1.42;;
66603;SDS011;53460;39.612;8.822;2022-11-09T07:55:18;9.70;;;2.88;;
66603;SDS011;53460;39.612;8.822;2022-11-09T07:57:43;4.57;;;2.10;;
66603;SDS011;53460;39.612;8.822;2022-11-09T08:00:11;7.65;;;1.73;;
66603;SDS011;53460;39.612;8.822;2022-11-09T08:02:37;5.40;;;1.60;;
66603;SDS011;53460;39.612;8.822;2022-11-09T08:05:02;9.15;;;1.73;;
66603;SDS011;53460;39.612;8.822;2022-11-09T08:07:28;4.38;;;1.65;;
66603;SDS011;53460;39.612;8.822;2022-11-09T08:09:53;5.80;;;1.20;;
66603;SDS011;53460;39.612;8.822;2022-11-09T08:12:19;5.55;;;1.45;;
66603;SDS011;53460;39.612;8.822;2022-11-09T08:14:44;4.93;;;1.48;;
66603;SDS011;53460;39.612;8.822;2022-11-09T08:17:10;6.68;;;2.20;;
66603;SDS011;53460;39.612;8.822;2022-11-09T08:19:35;5.35;;;1.60;;
66603;SDS011;53460;39.612;8.822;2022-11-09T08:22:01;4.80;;;1.48;;
66603;SDS011;53460;39.612;8.822;2022-11-09T08:24:26;2.08;;;1.30;;
66603;SDS011;53460;39.612;8.822;2022-11-09T08:26:52;7.78;;;1.80;;
66603;SDS011;53460;39.612;8.822;2022-11-09T08:29:17;5.80;;;1.25;;
66603;SDS011;53460;39.612;8.822;2022-11-09T08:31:43;7.32;;;1.52;;
66603;SDS011;53460;39.612;8.822;2022-11-09T08:34:11;6.57;;;1.58;;
66603;SDS011;53460;39.612;8.822;2022-11-09T08:36:38;6.05;;;1.55;;
66603;SDS011;53460;39.612;8.822;2022-11-09T08:39:04;6.18;;;2.15;;
66603;SDS011;53460;39.612;8.822;2022-11-09T08:41:29;7.15;;;1.77;;
66603;SDS011;53460;39.612;8.822;2022-11-09T08:43:55;9.88;;;1.90;;
66603;SDS011;53460;39.612;8.822;2022-11-09T08:46:20;4.97;;;1.80;;
66603;SDS011;53460;39.612;8.822;2022-11-09T08:48:46;5.57;;;1.40;;
66603;SDS011;53460;39.612;8.822;2022-11-09T08:51:11;6.78;;;1.40;;
66603;SDS011;53460;39.612;8.822;2022-11-09T08:53:37;4.75;;;1.63;;
66603;SDS011;53460;39.612;8.822;2022-11-09T08:56:04;4.78;;;1.63;;
66603;SDS011;53460;39.612;8.822;2022-11-09T08:58:29;6.53;;;1.75;;
66603;SDS011;53460;39.612;8.822;2022-11-09T09:00:55;6.75;;;2.10;;
66603;SDS011;53460;39.612;8.822;2022-11-09T09:03:21;3.53;;;1.67;;
66603;SDS011;53460;39.612;8.822;2022-11-09T09:05:46;7.32;;;1.63;;
66603;SDS011;53460;39.612;8.822;2022-11-09T09:08:12;7.45;;;1.90;;
66603;SDS011;53460;39.612;8.822;2022-11-09T09:10:40;5.55;;;1.63;;
66603;SDS011;53460;39.612;8.822;2022-11-09T09:13:06;7.00;;;1.92;;
66603;SDS011;53460;39.612;8.822;2022-11-09T09:15:31;5.32;;;2.22;;
66603;SDS011;53460;39.612;8.822;2022-11-09T09:18:00;6.93;;;1.65;;
66603;SDS011;53460;39.612;8.822;2022-11-09T09:20:26;7.47;;;2.00;;
66603;SDS011;53460;39.612;8.822;2022-11-09T09:22:51;4.75;;;1.98;;
66603;SDS011;53460;39.612;8.822;2022-11-09T09:25:17;3.40;;;1.77;;
66603;SDS011;53460;39.612;8.822;2022-11-09T09:27:43;4.43;;;1.60;;
66603;SDS011;53460;39.612;8.822;2022-11-09T09:30:09;4.63;;;1.52;;
66603;SDS011;53460;39.612;8.822;2022-11-09T09:32:34;4.25;;;1.63;;
66603;SDS011;53460;39.612;8.822;2022-11-09T09:35:00;4.80;;;1.77;;
66603;SDS011;53460;39.612;8.822;2022-11-09T09:37:25;8.90;;;2.20;;
66603;SDS011;53460;39.612;8.822;2022-11-09T09:39:51;7.85;;;2.10;;
66603;SDS011;53460;39.612;8.822;2022-11-09T09:42:17;6.68;;;1.75;;
66603;SDS011;53460;39.612;8.822;2022-11-09T09:50:00;7.88;;;2.25;;
66603;SDS011;53460;39.612;8.822;2022-11-09T09:55:49;5.88;;;2.03;;
66603;SDS011;53460;39.612;8.822;2022-11-09T09:57:51;6.65;;;1.90;;
66603;SDS011;53460;39.612;8.822;2022-11-09T10:00:18;6.95;;;2.15;;
66603;SDS011;53460;39.612;8.822;2022-11-09T10:02:45;8.30;;;2.20;;
66603;SDS011;53460;39.612;8.822;2022-11-09T10:05:11;7.65;;;1.73;;
66603;SDS011;53460;39.612;8.822;2022-11-09T10:18:06;11.73;;;2.85;;
66603;SDS011;53460;39.612;8.822;2022-11-09T10:25:30;6.90;;;2.67;;
66603;SDS011;53460;39.612;8.822;2022-11-09T10:27:58;6.78;;;2.92;;
66603;SDS011;53460;39.612;8.822;2022-11-09T10:30:25;8.35;;;3.22;;
66603;SDS011;53460;39.612;8.822;2022-11-09T10:33:05;7.15;;;2.42;;
66603;SDS011;53460;39.612;8.822;2022-11-09T10:35:36;8.23;;;2.20;;
66603;SDS011;53460;39.612;8.822;2022-11-09T10:38:02;9.95;;;2.60;;
66603;SDS011;53460;39.612;8.822;2022-11-09T10:43:13;12.60;;;2.72;;
66603;SDS011;53460;39.612;8.822;2022-11-09T10:45:59;7.75;;;2.25;;
66603;SDS011;53460;39.612;8.822;2022-11-09T10:48:43;6.45;;;2.15;;
66603;SDS011;53460;39.612;8.822;2022-11-09T10:54:17;10.85;;;2.63;;
66603;SDS011;53460;39.612;8.822;2022-11-09T10:57:23;6.57;;;3.08;;
66603;SDS011;53460;39.612;8.822;2022-11-09T11:00:12;9.75;;;3.47;;
66603;SDS011;53460;39.612;8.822;2022-11-09T11:02:56;12.02;;;2.80;;
66603;SDS011;53460;39.612;8.822;2022-11-09T11:05:40;8.13;;;2.33;;
66603;SDS011;53460;39.612;8.822;2022-11-09T11:08:26;10.57;;;2.85;;
66603;SDS011;53460;39.612;8.822;2022-11-09T11:19:42;7.85;;;2.33;;
66603;SDS011;53460;39.612;8.822;2022-11-09T11:22:26;7.13;;;2.70;;
66603;SDS011;53460;39.612;8.822;2022-11-09T11:25:16;6.68;;;1.88;;
66603;SDS011;53460;39.612;8.822;2022-11-09T11:28:03;8.30;;;2.42;;
66603;SDS011;53460;39.612;8.822;2022-11-09T11:30:48;6.70;;;2.40;;
66603;SDS011;53460;39.612;8.822;2022-11-09T11:33:32;11.60;;;3.10;;
66603;SDS011;53460;39.612;8.822;2022-11-09T12:13:55;8.23;;;2.70;;
66603;SDS011;53460;39.612;8.822;2022-11-09T12:31:46;15.25;;;2.85;;
66603;SDS011;53460;39.612;8.822;2022-11-09T12:34:40;5.22;;;2.00;;
66603;SDS011;53460;39.612;8.822;2022-11-09T12:37:26;6.25;;;2.17;;
66603;SDS011;53460;39.612;8.822;2022-11-09T12:40:15;8.82;;;2.63;;
66603;SDS011;53460;39.612;8.822;2022-11-09T12:45:47;16.10;;;3.20;;
66603;SDS011;53460;39.612;8.822;2022-11-09T12:48:33;7.70;;;2.10;;
66603;SDS011;53460;39.612;8.822;2022-11-09T12:51:17;6.90;;;1.83;;
66603;SDS011;53460;39.612;8.822;2022-11-09T12:54:03;10.35;;;2.30;;
66603;SDS011;53460;39.612;8.822;2022-11-09T12:56:56;9.00;;;2.17;;
66603;SDS011;53460;39.612;8.822;2022-11-09T13:02:37;8.73;;;1.92;;
66603;SDS011;53460;39.612;8.822;2022-11-09T13:08:53;11.80;;;2.70;;
66603;SDS011;53460;39.612;8.822;2022-11-09T13:11:39;13.13;;;2.05;;
66603;SDS011;53460;39.612;8.822;2022-11-09T13:29:25;11.63;;;2.50;;
66603;SDS011;53460;39.612;8.822;2022-11-09T13:34:56;8.35;;;1.90;;
66603;SDS011;53460;39.612;8.822;2022-11-09T13:43:15;7.65;;;2.60;;
66603;SDS011;53460;39.612;8.822;2022-11-09T13:48:47;8.38;;;2.58;;
66603;SDS011;53460;39.612;8.822;2022-11-09T13:54:34;8.57;;;2.30;;
66603;SDS011;53460;39.612;8.822;2022-11-09T13:57:19;8.38;;;2.50;;
66603;SDS011;53460;39.612;8.822;2022-11-09T14:00:04;9.30;;;2.28;;
66603;SDS011;53460;39.612;8.822;2022-11-09T14:02:56;9.88;;;2.47;;
66603;SDS011;53460;39.612;8.822;2022-11-09T14:05:41;16.35;;;3.78;;
66603;SDS011;53460;39.612;8.822;2022-11-09T14:08:34;12.10;;;2.50;;
66603;SDS011;53460;39.612;8.822;2022-11-09T14:11:35;8.68;;;2.10;;
66603;SDS011;53460;39.612;8.822;2022-11-09T14:17:48;6.60;;;1.95;;
66603;SDS011;53460;39.612;8.822;2022-11-09T14:20:46;11.50;;;2.55;;
66603;SDS011;53460;39.612;8.822;2022-11-09T14:23:33;9.45;;;2.55;;
66603;SDS011;53460;39.612;8.822;2022-11-09T14:26:18;8.35;;;2.40;;
66603;SDS011;53460;39.612;8.822;2022-11-09T14:29:22;11.80;;;3.08;;
66603;SDS011;53460;39.612;8.822;2022-11-09T14:38:13;9.20;;;3.15;;
66603;SDS011;53460;39.612;8.822;2022-11-09T14:40:58;10.40;;;2.50;;
66603;SDS011;53460;39.612;8.822;2022-11-09T14:43:42;11.13;;;2.72;;
66603;SDS011;53460;39.612;8.822;2022-11-09T14:46:27;10.32;;;2.53;;
66603;SDS011;53460;39.612;8.822;2022-11-09T14:49:12;9.88;;;2.67;;
66603;SDS011;53460;39.612;8.822;2022-11-09T14:51:56;6.45;;;2.17;;
66603;SDS011;53460;39.612;8.822;2022-11-09T14:54:40;8.73;;;3.28;;
66603;SDS011;53460;39.612;8.822;2022-11-09T14:57:23;10.88;;;2.50;;
66603;SDS011;53460;39.612;8.822;2022-11-09T15:00:21;9.02;;;2.40;;
66603;SDS011;53460;39.612;8.822;2022-11-09T15:03:27;11.82;;;2.63;;
66603;SDS011;53460;39.612;8.822;2022-11-09T15:06:13;7.13;;;2.00;;
66603;SDS011;53460;39.612;8.822;2022-11-09T15:08:59;7.72;;;2.40;;
66603;SDS011;53460;39.612;8.822;2022-11-09T15:11:43;7.93;;;2.45;;
66603;SDS011;53460;39.612;8.822;2022-11-09T15:14:29;17.08;;;2.75;;
66603;SDS011;53460;39.612;8.822;2022-11-09T15:17:29;7.75;;;2.45;;
66603;SDS011;53460;39.612;8.822;2022-11-09T15:23:00;9.88;;;2.03;;
66603;SDS011;53460;39.612;8.822;2022-11-09T15:28:29;7.88;;;2.45;;
66603;SDS011;53460;39.612;8.822;2022-11-09T15:31:14;9.25;;;2.60;;
66603;SDS011;53460;39.612;8.822;2022-11-09T15:33:58;8.85;;;2.83;;
66603;SDS011;53460;39.612;8.822;2022-11-09T15:36:43;14.13;;;2.92;;
66603;SDS011;53460;39.612;8.822;2022-11-09T15:39:27;10.35;;;2.42;;
66603;SDS011;53460;39.612;8.822;2022-11-09T15:42:11;12.43;;;3.25;;
66603;SDS011;53460;39.612;8.822;2022-11-09T15:44:56;12.20;;;2.65;;
66603;SDS011;53460;39.612;8.822;2022-11-09T15:47:47;12.30;;;3.05;;
66603;SDS011;53460;39.612;8.822;2022-11-09T15:50:31;14.35;;;3.00;;
66603;SDS011;53460;39.612;8.822;2022-11-09T15:53:15;16.60;;;3.25;;
66603;SDS011;53460;39.612;8.822;2022-11-09T15:55:59;12.45;;;2.67;;
66603;SDS011;53460;39.612;8.822;2022-11-09T15:58:43;17.02;;;3.22;;
66603;SDS011;53460;39.612;8.822;2022-11-09T16:01:29;10.30;;;2.88;;
66603;SDS011;53460;39.612;8.822;2022-11-09T16:04:17;7.80;;;2.20;;
66603;SDS011;53460;39.612;8.822;2022-11-09T16:07:00;14.68;;;2.85;;
66603;SDS011;53460;39.612;8.822;2022-11-09T16:09:44;9.93;;;3.08;;
66603;SDS011;53460;39.612;8.822;2022-11-09T16:12:29;18.90;;;2.55;;
66603;SDS011;53460;39.612;8.822;2022-11-09T16:15:13;15.07;;;3.50;;
66603;SDS011;53460;39.612;8.822;2022-11-09T16:17:57;9.88;;;2.40;;
66603;SDS011;53460;39.612;8.822;2022-11-09T16:20:41;13.63;;;3.67;;
66603;SDS011;53460;39.612;8.822;2022-11-09T16:23:24;14.45;;;4.32;;
66603;SDS011;53460;39.612;8.822;2022-11-09T16:26:10;19.30;;;4.28;;
66603;SDS011;53460;39.612;8.822;2022-11-09T16:28:54;13.10;;;5.05;;
66603;SDS011;53460;39.612;8.822;2022-11-09T16:31:38;29.98;;;13.90;;
66603;SDS011;53460;39.612;8.822;2022-11-09T16:34:22;30.02;;;13.20;;
66603;SDS011;53460;39.612;8.822;2022-11-09T16:37:06;24.25;;;11.90;;
66603;SDS011;53460;39.612;8.822;2022-11-09T16:39:50;30.67;;;10.75;;
66603;SDS011;53460;39.612;8.822;2022-11-09T16:42:34;17.15;;;6.15;;
66603;SDS011;53460;39.612;8.822;2022-11-09T16:45:18;25.40;;;5.75;;
66603;SDS011;53460;39.612;8.822;2022-11-09T16:48:03;11.27;;;4.93;;
66603;SDS011;53460;39.612;8.822;2022-11-09T16:50:53;10.40;;;6.18;;
66603;SDS011;53460;39.612;8.822;2022-11-09T16:53:36;20.33;;;6.57;;
66603;SDS011;53460;39.612;8.822;2022-11-09T16:56:20;16.77;;;7.32;;
66603;SDS011;53460;39.612;8.822;2022-11-09T16:59:04;14.10;;;6.47;;
66603;SDS011;53460;39.612;8.822;2022-11-09T17:01:52;15.10;;;7.05;;
66603;SDS011;53460;39.612;8.822;2022-11-09T17:04:36;27.10;;;7.50;;
66603;SDS011;53460;39.612;8.822;2022-11-09T17:07:20;15.20;;;7.53;;
66603;SDS011;53460;39.612;8.822;2022-11-09T17:10:04;15.88;;;7.32;;
66603;SDS011;53460;39.612;8.822;2022-11-09T17:12:48;17.75;;;6.80;;
66603;SDS011;53460;39.612;8.822;2022-11-09T17:15:32;15.48;;;5.63;;
66603;SDS011;53460;39.612;8.822;2022-11-09T17:18:16;12.95;;;4.60;;
66603;SDS011;53460;39.612;8.822;2022-11-09T17:21:00;10.13;;;4.22;;
66603;SDS011;53460;39.612;8.822;2022-11-09T17:23:44;14.25;;;5.00;;
66603;SDS011;53460;39.612;8.822;2022-11-09T17:26:29;16.90;;;4.40;;
66603;SDS011;53460;39.612;8.822;2022-11-09T17:29:14;17.05;;;5.25;;
66603;SDS011;53460;39.612;8.822;2022-11-09T17:31:57;13.98;;;5.18;;
66603;SDS011;53460;39.612;8.822;2022-11-09T17:34:42;11.70;;;4.65;;
66603;SDS011;53460;39.612;8.822;2022-11-09T17:37:26;19.30;;;6.78;;
66603;SDS011;53460;39.612;8.822;2022-11-09T17:40:11;14.77;;;5.43;;
66603;SDS011;53460;39.612;8.822;2022-11-09T17:42:55;17.73;;;7.25;;
66603;SDS011;53460;39.612;8.822;2022-11-09T17:45:39;14.35;;;5.57;;